createdAt,value
2022-09-27T00:02:17.593Z,26.20
2022-09-27T00:04:49.968Z,31.10
2022-09-27T00:07:21.811Z,29.50
2022-09-27T00:09:53.733Z,30.00
2022-09-27T00:12:25.723Z,28.40
2022-09-27T00:14:57.590Z,27.60
2022-09-27T00:17:29.757Z,29.20
2022-09-27T00:20:03.910Z,29.20
2022-09-27T00:22:36.267Z,29.80
2022-09-27T00:25:10.503Z,31.80
2022-09-27T00:27:42.526Z,34.90
2022-09-27T00:30:15.957Z,33.70
2022-09-27T00:32:47.810Z,35.10
2022-09-27T00:35:20.197Z,33.80
2022-09-27T00:37:52.557Z,36.30
2022-09-27T00:40:25.213Z,40.20
2022-09-27T00:42:57.174Z,38.80
2022-09-27T00:45:29.181Z,38.00
2022-09-27T00:48:06.624Z,37.20
2022-09-27T00:50:42.119Z,38.10
2022-09-27T00:53:19.295Z,37.70
2022-09-27T00:55:55.109Z,37.80
2022-09-27T00:58:31.888Z,38.50
2022-09-27T01:01:07.720Z,33.70
2022-09-27T01:03:45.415Z,36.30
2022-09-27T01:06:18.203Z,35.90
2022-09-27T01:08:50.377Z,39.60
2022-09-27T01:11:37.067Z,37.30
2022-09-27T01:14:27.060Z,32.20
2022-09-27T01:17:08.575Z,35.90
2022-09-27T01:20:15.636Z,37.20
2022-09-27T01:23:00.419Z,36.50
2022-09-27T01:25:52.656Z,35.50
2022-09-27T01:28:36.722Z,35.80
2022-09-27T01:31:17.787Z,32.50
2022-09-27T01:33:58.772Z,32.20
2022-09-27T01:36:39.740Z,35.20
2022-09-27T01:39:30.071Z,30.80
2022-09-27T01:45:10.905Z,33.30
2022-09-27T01:47:56.363Z,31.90
2022-09-27T01:50:51.181Z,32.80
2022-09-27T01:53:27.916Z,33.90
2022-09-27T01:56:26.029Z,32.40
2022-09-27T01:59:07.740Z,29.40
2022-09-27T02:01:42.921Z,31.30
2022-09-27T02:04:18.802Z,34.60
2022-09-27T02:07:22.104Z,33.60
2022-09-27T02:09:58.342Z,33.90
2022-09-27T02:12:43.203Z,35.50
2022-09-27T02:15:17.501Z,34.30
2022-09-27T02:17:59.685Z,35.70
2022-09-27T02:23:15.303Z,33.50
2022-09-27T02:25:57.527Z,34.70
2022-09-27T02:28:34.819Z,33.80
2022-09-27T02:31:07.269Z,35.40
2022-09-27T02:33:46.663Z,40.40
2022-09-27T02:36:19.614Z,37.30
2022-09-27T02:38:52.388Z,40.90
2022-09-27T02:41:25.829Z,34.80
2022-09-27T02:44:01.173Z,36.90
2022-09-27T02:46:49.488Z,38.60
2022-09-27T02:49:40.432Z,39.70
2022-09-27T02:52:32.599Z,36.90
2022-09-27T02:55:13.504Z,36.00
2022-09-27T02:58:11.576Z,38.30
2022-09-27T03:01:06.011Z,40.80
2022-09-27T03:04:06.443Z,41.20
2022-09-27T03:06:40.894Z,39.90
2022-09-27T03:09:20.890Z,41.90
2022-09-27T03:11:53.425Z,36.90
2022-09-27T03:14:25.524Z,43.70
2022-09-27T03:17:06.809Z,44.90
2022-09-27T03:23:04.489Z,50.00
2022-09-27T03:25:36.802Z,45.00
2022-09-27T03:28:09.390Z,57.50
2022-09-27T03:30:42.264Z,49.30
2022-09-27T03:33:17.878Z,52.80
2022-09-27T03:36:02.937Z,73.10
2022-09-27T03:38:35.241Z,82.80
2022-09-27T03:41:07.540Z,58.20
2022-09-27T03:43:39.415Z,53.60
2022-09-27T03:46:12.228Z,70.50
2022-09-27T03:48:44.597Z,68.00
2022-09-27T03:51:16.638Z,135.10
2022-09-27T03:53:49.275Z,57.10
2022-09-27T03:56:21.240Z,79.40
2022-09-27T03:58:53.124Z,57.00
2022-09-27T04:01:26.290Z,56.60
2022-09-27T04:03:58.759Z,45.10
2022-09-27T04:06:35.945Z,57.00
2022-09-27T04:09:08.757Z,94.80
2022-09-27T04:11:58.459Z,55.10
2022-09-27T04:14:30.393Z,51.10
2022-09-27T04:17:21.445Z,47.20
2022-09-27T04:20:12.920Z,63.60
2022-09-27T04:22:48.247Z,68.00
2022-09-27T04:25:20.802Z,62.60
2022-09-27T04:27:54.943Z,58.50
2022-09-27T04:30:27.510Z,54.40
2022-09-27T04:33:17.892Z,48.00
2022-09-27T04:36:07.826Z,79.00
2022-09-27T04:38:41.861Z,48.00
2022-09-27T04:41:15.349Z,65.50
2022-09-27T04:43:47.238Z,61.20
2022-09-27T04:46:19.191Z,62.20
2022-09-27T04:48:51.562Z,51.80
2022-09-27T04:51:23.562Z,70.60
2022-09-27T04:53:56.759Z,49.30
2022-09-27T04:56:31.291Z,54.90
2022-09-27T04:59:08.311Z,51.00
2022-09-27T05:01:42.933Z,48.60
2022-09-27T05:04:23.855Z,62.60
2022-09-27T05:06:57.383Z,71.50
2022-09-27T05:09:40.767Z,53.70
2022-09-27T05:12:14.096Z,145.30
2022-09-27T05:14:50.026Z,115.40
2022-09-27T05:17:41.927Z,121.10
2022-09-27T05:20:29.012Z,141.20
2022-09-27T05:23:08.478Z,160.70
2022-09-27T05:25:40.575Z,151.60
2022-09-27T05:28:12.590Z,278.30
2022-09-27T05:30:45.764Z,124.30
2022-09-27T05:33:22.397Z,170.30
2022-09-27T05:35:58.244Z,130.60
2022-09-27T05:38:33.855Z,122.00
2022-09-27T05:41:06.266Z,89.00
2022-09-27T05:43:39.681Z,145.70
2022-09-27T05:46:11.740Z,131.00
2022-09-27T05:48:43.819Z,168.90
2022-09-27T05:51:15.976Z,97.00
2022-09-27T05:53:48.072Z,127.50
2022-09-27T05:56:26.266Z,86.40
2022-09-27T05:59:21.003Z,77.00
2022-09-27T06:02:22.298Z,109.20
2022-09-27T06:04:57.126Z,80.70
2022-09-27T06:07:49.721Z,100.60
2022-09-27T06:10:33.583Z,80.70
2022-09-27T06:13:08.365Z,130.40
2022-09-27T06:15:46.485Z,80.30
2022-09-27T06:18:19.131Z,90.30
2022-09-27T06:20:53.825Z,89.60
2022-09-27T06:23:26.358Z,84.00
2022-09-27T06:26:05.056Z,81.10
2022-09-27T06:28:47.300Z,79.80
2022-09-27T06:31:19.854Z,109.80
2022-09-27T06:33:54.074Z,106.50
2022-09-27T06:36:26.041Z,92.50
2022-09-27T06:39:01.621Z,92.60
2022-09-27T06:41:38.076Z,81.60
2022-09-27T06:44:21.974Z,82.80
2022-09-27T06:47:16.725Z,94.80
2022-09-27T06:49:53.433Z,85.50
2022-09-27T06:52:25.557Z,69.80
2022-09-27T06:54:57.419Z,62.10
2022-09-27T06:57:47.067Z,73.60
2022-09-27T07:00:26.783Z,68.80
2022-09-27T07:03:18.037Z,67.90
2022-09-27T07:06:24.228Z,92.40
2022-09-27T07:09:06.725Z,101.00
2022-09-27T07:11:38.749Z,72.50
2022-09-27T07:14:12.082Z,71.70
2022-09-27T07:16:43.961Z,49.50
2022-09-27T07:19:18.340Z,58.30
2022-09-27T07:21:53.767Z,49.40
2022-09-27T07:24:26.002Z,48.10
2022-09-27T07:26:58.857Z,43.60
2022-09-27T07:29:32.082Z,44.20
2022-09-27T07:32:05.527Z,47.30
2022-09-27T07:34:37.458Z,48.50
2022-09-27T07:37:09.833Z,48.80
2022-09-27T07:39:44.741Z,47.80
2022-09-27T07:42:18.523Z,45.10
2022-09-27T07:44:53.754Z,53.10
2022-09-27T07:47:55.010Z,43.30
2022-09-27T07:50:49.223Z,50.90
2022-09-27T07:53:41.339Z,46.30
2022-09-27T07:56:36.157Z,47.60
2022-09-27T07:59:09.917Z,45.40
2022-09-27T08:01:42.095Z,41.30
2022-09-27T08:04:15.666Z,43.60
2022-09-27T08:06:47.683Z,45.70
2022-09-27T08:09:20.008Z,42.20
2022-09-27T08:11:52.031Z,50.30
2022-09-27T08:14:24.422Z,51.30
2022-09-27T08:16:57.053Z,52.90
2022-09-27T08:19:42.594Z,49.90
2022-09-27T08:22:50.116Z,46.70
2022-09-27T08:25:31.663Z,47.60
2022-09-27T08:28:10.433Z,48.50
2022-09-27T08:30:47.175Z,45.60
2022-09-27T08:33:19.752Z,42.00
2022-09-27T08:35:52.016Z,43.50
2022-09-27T08:38:23.946Z,43.70
2022-09-27T08:40:58.783Z,38.50
2022-09-27T08:43:42.069Z,42.00
2022-09-27T08:46:31.723Z,40.20
2022-09-27T08:49:11.157Z,38.70
2022-09-27T08:51:44.788Z,38.80
2022-09-27T08:54:21.456Z,37.80
2022-09-27T08:56:57.254Z,32.20
2022-09-27T08:59:32.933Z,35.50
2022-09-27T09:02:06.480Z,25.30
2022-09-27T09:04:43.392Z,30.10
2022-09-27T09:07:32.526Z,31.90
2022-09-27T09:10:40.083Z,34.00
2022-09-27T09:13:23.649Z,33.00
2022-09-27T09:16:15.923Z,29.50
2022-09-27T09:19:09.308Z,32.90
2022-09-27T09:21:55.832Z,33.10
2022-09-27T09:24:38.614Z,35.70
2022-09-27T09:27:17.413Z,39.70
2022-09-27T09:30:05.521Z,37.00
2022-09-27T09:32:54.124Z,36.30
2022-09-27T09:35:33.977Z,39.50
2022-09-27T09:38:12.392Z,38.20
2022-09-27T09:40:48.723Z,34.80
2022-09-27T09:43:26.782Z,38.10
2022-09-27T09:46:06.720Z,39.10
2022-09-27T09:48:44.632Z,36.40
2022-09-27T09:51:22.794Z,32.60
2022-09-27T09:53:59.997Z,30.90
2022-09-27T09:56:42.506Z,31.80
2022-09-27T09:59:20.270Z,33.30
2022-09-27T10:02:00.318Z,33.10
2022-09-27T10:04:34.160Z,39.30
2022-09-27T10:07:07.398Z,38.30
2022-09-27T10:09:40.207Z,37.00
2022-09-27T10:12:32.512Z,35.00
2022-09-27T10:15:07.505Z,36.30
2022-09-27T10:17:42.841Z,34.50
2022-09-27T10:20:27.072Z,36.60
2022-09-27T10:23:05.444Z,37.00
2022-09-27T10:25:53.445Z,38.90
2022-09-27T10:28:43.433Z,39.60
2022-09-27T10:31:18.598Z,38.90
2022-09-27T10:34:01.849Z,42.30
2022-09-27T10:36:38.811Z,38.50
2022-09-27T10:39:24.332Z,37.90
2022-09-27T10:41:56.533Z,37.60
2022-09-27T10:44:40.318Z,33.60
2022-09-27T10:47:31.831Z,37.00
2022-09-27T10:50:38.755Z,33.40
2022-09-27T10:53:23.344Z,33.60
2022-09-27T10:56:15.760Z,31.50
2022-09-27T10:58:48.521Z,32.40
2022-09-27T11:01:20.852Z,34.60
2022-09-27T11:04:24.592Z,35.70
2022-09-27T11:07:10.349Z,35.30
2022-09-27T11:09:50.710Z,33.40
2022-09-27T11:12:25.241Z,35.70
2022-09-27T11:15:00.315Z,39.00
2022-09-27T11:17:42.122Z,36.20
2022-09-27T11:20:34.196Z,34.00
2022-09-27T11:23:29.280Z,33.80
2022-09-27T11:26:28.289Z,38.80
2022-09-27T11:32:19.463Z,33.20
2022-09-27T11:35:05.597Z,34.00
2022-09-27T11:37:51.792Z,30.80
2022-09-27T11:40:35.022Z,34.10
2022-09-27T11:43:23.469Z,38.20
2022-09-27T11:46:16.533Z,35.60
2022-09-27T11:49:07.875Z,30.60
2022-09-27T11:51:59.967Z,29.60
2022-09-27T11:54:47.751Z,27.00
2022-09-27T11:57:28.850Z,30.20
2022-09-27T12:00:22.477Z,30.90
2022-09-27T12:03:34.407Z,32.00
2022-09-27T12:06:14.491Z,31.50
2022-09-27T12:08:58.575Z,29.90
2022-09-27T12:11:35.940Z,30.90
2022-09-27T12:14:39.411Z,30.40
2022-09-27T12:17:17.871Z,30.00
2022-09-27T12:19:56.578Z,28.80
2022-09-27T12:22:58.208Z,29.60
2022-09-27T12:25:43.930Z,26.00
2022-09-27T12:28:28.518Z,24.60
2022-09-27T12:31:32.023Z,24.50
2022-09-27T12:34:19.961Z,25.00
2022-09-27T12:37:00.402Z,25.80
2022-09-27T12:39:42.580Z,25.50
2022-09-27T12:42:28.886Z,24.00
2022-09-27T12:45:05.287Z,22.50
2022-09-27T12:47:56.711Z,23.10
2022-09-27T12:50:36.340Z,24.00
2022-09-27T12:53:19.038Z,23.60
2022-09-27T12:56:17.363Z,22.30
2022-09-27T12:59:10.783Z,21.60
2022-09-27T13:02:04.287Z,25.00
2022-09-27T13:04:56.660Z,22.90
2022-09-27T13:07:43.724Z,22.50
2022-09-27T13:10:41.334Z,20.20
2022-09-27T13:13:26.593Z,21.40
2022-09-27T13:16:01.986Z,20.30
2022-09-27T13:18:55.938Z,20.60
2022-09-27T13:21:59.693Z,21.20
2022-09-27T13:24:51.758Z,15.10
2022-09-27T13:27:43.919Z,15.80
2022-09-27T13:30:50.495Z,14.90
2022-09-27T13:33:43.322Z,16.10
2022-09-27T13:36:30.723Z,19.20
2022-09-27T13:39:23.357Z,17.00
2022-09-27T13:42:30.586Z,16.30
2022-09-27T13:45:21.208Z,18.10
2022-09-27T13:47:57.006Z,15.20
2022-09-27T13:50:47.170Z,15.10
2022-09-27T13:53:29.734Z,16.40
2022-09-27T13:56:02.494Z,14.30
2022-09-27T13:58:50.371Z,15.40
2022-09-27T14:01:45.226Z,12.80
2022-09-27T14:04:22.177Z,14.30
2022-09-27T14:07:00.227Z,14.00
2022-09-27T14:09:36.991Z,12.30
2022-09-27T14:12:21.260Z,13.50
2022-09-27T14:14:55.464Z,12.70
2022-09-27T14:17:28.154Z,15.20
2022-09-27T14:20:00.105Z,15.70
2022-09-27T14:22:35.145Z,17.10
2022-09-27T14:25:20.470Z,12.50
2022-09-27T14:27:54.745Z,15.40
2022-09-27T14:30:28.910Z,14.30
2022-09-27T14:36:50.814Z,14.60
2022-09-27T14:39:29.094Z,13.20
2022-09-27T14:42:01.809Z,12.30
2022-09-27T14:44:34.125Z,13.10
2022-09-27T14:47:18.375Z,13.10
2022-09-27T14:49:52.592Z,12.90
2022-09-27T14:52:28.626Z,13.10
2022-09-27T14:55:03.207Z,13.90
2022-09-27T14:57:37.558Z,14.10
2022-09-27T15:00:21.883Z,13.80
2022-09-27T15:02:56.674Z,13.00
2022-09-27T15:05:32.489Z,13.30
2022-09-27T15:08:07.214Z,15.30
2022-09-27T15:10:40.120Z,14.40
2022-09-27T15:13:18.740Z,16.20
2022-09-27T15:15:51.425Z,20.30
2022-09-27T15:18:45.326Z,14.80
2022-09-27T15:21:29.239Z,15.50
2022-09-27T15:24:02.714Z,15.00
2022-09-27T15:26:42.511Z,15.40
2022-09-27T15:29:24.008Z,15.00
2022-09-27T15:32:04.289Z,17.70
2022-09-27T15:34:38.111Z,18.00
2022-09-27T15:37:25.161Z,14.30
2022-09-27T15:40:01.654Z,16.30
2022-09-27T15:42:58.468Z,14.80
2022-09-27T15:45:35.298Z,15.60
2022-09-27T15:48:17.123Z,17.70
2022-09-27T15:50:51.026Z,16.40
2022-09-27T15:53:46.120Z,17.00
2022-09-27T15:56:18.312Z,16.40
2022-09-27T15:58:50.337Z,16.50
2022-09-27T16:01:23.232Z,16.40
2022-09-27T16:03:55.130Z,16.80
2022-09-27T16:06:29.170Z,22.90
2022-09-27T16:09:01.179Z,18.10
2022-09-27T16:11:33.118Z,20.00
2022-09-27T16:14:05.268Z,16.30
2022-09-27T16:16:37.670Z,15.80
2022-09-27T16:19:09.710Z,19.20
2022-09-27T16:21:42.899Z,15.80
2022-09-27T16:24:14.780Z,16.80
2022-09-27T16:26:47.559Z,15.60
2022-09-27T16:29:19.733Z,19.10
2022-09-27T16:31:53.673Z,16.80
2022-09-27T16:34:26.242Z,16.80
2022-09-27T16:37:01.645Z,18.10
2022-09-27T16:39:36.102Z,16.80
2022-09-27T16:42:08.594Z,16.20
2022-09-27T16:44:40.530Z,17.30
2022-09-27T16:47:12.400Z,18.00
2022-09-27T16:50:01.947Z,17.70
2022-09-27T16:52:34.702Z,15.90
2022-09-27T16:55:07.685Z,15.40
2022-09-27T16:57:39.736Z,15.40
2022-09-27T17:00:14.149Z,16.20
2022-09-27T17:02:48.526Z,16.40
2022-09-27T17:05:22.860Z,18.90
2022-09-27T17:07:55.178Z,15.40
2022-09-27T17:10:27.604Z,19.00
2022-09-27T17:13:01.643Z,17.30
2022-09-27T17:15:34.025Z,16.30
2022-09-27T17:18:06.006Z,13.80
2022-09-27T17:20:38.251Z,14.30
2022-09-27T17:23:10.637Z,14.20
2022-09-27T17:25:42.689Z,15.40
2022-09-27T17:28:14.588Z,16.50
2022-09-27T17:30:46.431Z,15.10
2022-09-27T17:33:20.701Z,15.90
2022-09-27T17:36:02.212Z,17.70
2022-09-27T17:38:34.180Z,15.00
2022-09-27T17:41:08.688Z,18.20
2022-09-27T17:43:50.194Z,17.80
2022-09-27T17:46:26.313Z,15.80
2022-09-27T17:49:16.122Z,17.10
2022-09-27T17:51:51.014Z,15.50
2022-09-27T17:54:26.278Z,15.70
2022-09-27T17:56:58.443Z,18.00
2022-09-27T17:59:31.274Z,15.50
2022-09-27T18:02:03.187Z,15.40
2022-09-27T18:04:35.276Z,16.00
2022-09-27T18:07:07.096Z,17.50
2022-09-27T18:09:39.017Z,16.50
2022-09-27T18:12:11.216Z,17.50
2022-09-27T18:14:43.192Z,18.20
2022-09-27T18:17:16.769Z,16.50
2022-09-27T18:19:48.617Z,17.60
2022-09-27T18:22:20.648Z,21.40
2022-09-27T18:24:52.606Z,18.40
2022-09-27T18:27:24.522Z,19.10
2022-09-27T18:29:56.382Z,18.90
2022-09-27T18:32:28.672Z,19.90
2022-09-27T18:35:00.531Z,21.30
2022-09-27T18:37:34.605Z,20.50
2022-09-27T18:40:07.604Z,19.30
2022-09-27T18:42:39.424Z,18.00
2022-09-27T18:45:12.081Z,19.80
2022-09-27T18:47:43.987Z,20.60
2022-09-27T18:50:16.009Z,20.80
2022-09-27T18:52:47.854Z,19.30
2022-09-27T18:55:24.622Z,18.20
2022-09-27T18:57:57.317Z,22.60
2022-09-27T19:00:29.430Z,19.40
2022-09-27T19:03:01.420Z,19.70
2022-09-27T19:05:35.051Z,19.70
2022-09-27T19:08:06.915Z,17.50
2022-09-27T19:10:38.867Z,18.00
2022-09-27T19:13:10.855Z,18.60
2022-09-27T19:15:43.159Z,17.50
2022-09-27T19:18:15.132Z,18.70
2022-09-27T19:20:47.202Z,18.70
2022-09-27T19:23:23.864Z,17.60
2022-09-27T19:25:58.275Z,18.30
2022-09-27T19:28:34.126Z,21.70
2022-09-27T19:31:09.645Z,18.00
2022-09-27T19:33:42.101Z,17.80
2022-09-27T19:36:16.735Z,20.80
2022-09-27T19:38:49.365Z,19.30
2022-09-27T19:41:21.499Z,19.40
2022-09-27T19:43:55.328Z,16.60
2022-09-27T19:46:28.310Z,19.70
2022-09-27T19:49:01.518Z,16.70
2022-09-27T19:51:34.160Z,17.40
2022-09-27T19:54:06.474Z,16.80
2022-09-27T19:56:38.358Z,15.60
2022-09-27T19:59:10.322Z,15.20
2022-09-27T20:01:43.734Z,20.00
2022-09-27T20:04:16.374Z,18.40
2022-09-27T20:06:49.589Z,19.10
2022-09-27T20:09:22.257Z,16.80
2022-09-27T20:11:54.686Z,18.20
2022-09-27T20:14:27.219Z,16.60
2022-09-27T20:16:59.664Z,15.60
2022-09-27T20:19:31.498Z,15.70
2022-09-27T20:22:03.329Z,16.90
2022-09-27T20:24:35.793Z,22.70
2022-09-27T20:27:07.777Z,18.20
2022-09-27T20:29:39.592Z,18.50
2022-09-27T20:32:28.287Z,20.30
2022-09-27T20:35:01.672Z,17.90
2022-09-27T20:37:34.536Z,20.40
2022-09-27T20:40:07.754Z,18.60
2022-09-27T20:42:39.672Z,17.30
2022-09-27T20:45:12.306Z,25.00
2022-09-27T20:47:44.202Z,18.40
2022-09-27T20:50:16.166Z,24.70
2022-09-27T20:52:47.963Z,19.50
2022-09-27T20:55:20.142Z,18.00
2022-09-27T20:57:57.699Z,21.00
2022-09-27T21:00:30.019Z,22.80
2022-09-27T21:03:02.125Z,21.20
2022-09-27T21:05:34.162Z,20.60
2022-09-27T21:08:05.981Z,20.60
2022-09-27T21:10:38.234Z,25.40
2022-09-27T21:13:10.137Z,24.40
2022-09-27T21:15:41.991Z,24.60
2022-09-27T21:18:14.114Z,26.10
2022-09-27T21:20:45.920Z,22.00
2022-09-27T21:23:17.740Z,26.70
2022-09-27T21:25:51.614Z,28.40
2022-09-27T21:28:23.560Z,27.10
2022-09-27T21:30:55.547Z,28.10
2022-09-27T21:33:27.489Z,30.60
2022-09-27T21:35:59.324Z,28.10
2022-09-27T21:38:33.262Z,24.20
2022-09-27T21:41:07.155Z,27.10
2022-09-27T21:43:40.830Z,25.70
2022-09-27T21:46:14.886Z,30.50
2022-09-27T21:48:49.059Z,28.80
2022-09-27T21:51:22.636Z,26.20
2022-09-27T21:53:57.020Z,26.10
2022-09-27T21:56:30.353Z,27.90
2022-09-27T21:59:02.700Z,25.60
2022-09-27T22:01:35.847Z,27.10
2022-09-27T22:04:08.893Z,24.60
2022-09-27T22:06:41.712Z,25.50
2022-09-27T22:09:17.558Z,24.40
2022-09-27T22:11:50.077Z,25.80
2022-09-27T22:14:22.259Z,26.90
2022-09-27T22:16:54.028Z,26.10
2022-09-27T22:19:25.813Z,26.30
2022-09-27T22:21:57.617Z,26.50
2022-09-27T22:24:29.785Z,26.00
2022-09-27T22:27:01.731Z,25.70
2022-09-27T22:29:34.113Z,25.20
2022-09-27T22:32:06.219Z,25.70
2022-09-27T22:34:38.041Z,29.40
2022-09-27T22:37:10.411Z,32.10
2022-09-27T22:39:42.223Z,28.90
2022-09-27T22:42:14.195Z,30.60
2022-09-27T22:44:46.003Z,33.10
2022-09-27T22:47:17.944Z,29.40
2022-09-27T22:49:49.812Z,30.10
2022-09-27T22:52:21.740Z,28.90
2022-09-27T22:54:53.763Z,27.20
2022-09-27T22:57:26.434Z,27.60
2022-09-27T22:59:58.446Z,30.00
2022-09-27T23:02:30.336Z,27.50
2022-09-27T23:05:02.146Z,28.80
2022-09-27T23:07:34.067Z,28.80
2022-09-27T23:10:07.181Z,30.20
2022-09-27T23:12:39.070Z,29.10
2022-09-27T23:15:13.983Z,30.00
2022-09-27T23:17:45.761Z,32.10
2022-09-27T23:20:18.612Z,31.20
2022-09-27T23:22:50.608Z,29.30
2022-09-27T23:25:22.720Z,33.40
2022-09-27T23:27:55.006Z,33.60
2022-09-27T23:30:29.213Z,34.40
2022-09-27T23:33:01.093Z,36.50
2022-09-27T23:35:33.989Z,34.60
2022-09-27T23:38:06.873Z,36.50
2022-09-27T23:40:39.973Z,38.40
2022-09-27T23:43:11.912Z,37.80
2022-09-27T23:45:44.039Z,35.80
2022-09-27T23:48:15.925Z,36.70
2022-09-27T23:50:48.333Z,38.10
2022-09-27T23:53:20.545Z,38.00
2022-09-27T23:56:02.821Z,33.90
2022-09-27T23:58:37.576Z,33.70
